Lisman, Alabama
Current Conditions -  °F | °C
As of 11:35 AM on Saturday 22 Nov 2014 (Local Time) from KDYA Reporting Station
Clear Clear  
Wind Chill: 67°   Ceiling: Unl
Heat Index: 67°   Visibility: 10mi
Dew Point: 45°   Wind: 9mph
Humidity: 45%   Direction: 120°ESE
Pressure: 30.24"   Gusts: NA
Location:  32.17°N, 88.28°W
Report Text: KDYA 221735Z AUTO 12008KT 10SM CLR 20/07 A3024 RMK AO2 T01970073
Loading
Personal Weather Stations






























Interactive Weather Map New forecast layout! Learn more

10-Day Weather Forecast

Advertisements
Track Severe Weather on mobile